weatherino

Wetterdaten aus der Harmsstraße 54 in 24114 Kiel (4. OG, außen), die per BME280 und einem ESP-32 erhoben werden.

Unter https://wetter.janbpunkt.de/weather.xml steht eine entsprechende XML bereit, die das jüngste Messergebnis enthält.

Da der weatherino ab und zu ausfällt/gewartet wird, können Messpunkte fehlen.

Keine Garantie auf Korrektheit der Werte. Keine Haftung für direkte oder indirekte Schäden, die aus der Verwendung der Daten resultieren. Die Daten der Website werden per SSL verschlüsselt übertragen, es werden keine Cookies gesetzt und keine IP-Adressen geloggt. Weiterhin findet keine Verarbeitung von personenbezogenen Daten statt.

Mehr zu dem Projekt findet man hier.

Impressum
Letzte Messung
Zeitpunkt Temperatur Luftfeuchte Luftdruck
2021-10-23 19:30:40 13.07 ℃ 100 % 1027.99 hPa

Zeitpunkt Temperatur Luftfeuchte Luftdruck
2021-10-23 19:30:40 13.07 ℃ 100 % 1027.99 hPa
2021-10-23 19:20:37 12.97 ℃ 100 % 1027.92 hPa
2021-10-23 19:10:37 13.21 ℃ 100 % 1027.76 hPa
2021-10-23 19:00:37 13.72 ℃ 100 % 1027.7 hPa
2021-10-23 18:50:37 14.05 ℃ 100 % 1027.59 hPa
2021-10-23 18:40:37 14.18 ℃ 100 % 1027.45 hPa
2021-10-23 18:30:37 14.26 ℃ 100 % 1027.38 hPa
2021-10-23 18:20:37 14.26 ℃ 100 % 1027.3 hPa
2021-10-23 18:10:37 14.34 ℃ 100 % 1027.2 hPa
2021-10-23 18:00:37 14.33 ℃ 100 % 1027.13 hPa
2021-10-23 17:50:37 13.97 ℃ 100 % 1027.07 hPa
2021-10-23 17:40:37 13.93 ℃ 100 % 1026.98 hPa
2021-10-23 17:30:37 14.05 ℃ 100 % 1026.9 hPa
2021-10-23 17:20:37 13.85 ℃ 100 % 1026.84 hPa
2021-10-23 17:10:37 13.65 ℃ 100 % 1026.81 hPa
2021-10-23 17:00:37 13.38 ℃ 100 % 1026.81 hPa
2021-10-23 16:50:37 13.47 ℃ 100 % 1026.76 hPa
2021-10-23 16:40:37 13.57 ℃ 100 % 1026.66 hPa
2021-10-23 16:30:37 13.43 ℃ 100 % 1026.63 hPa
2021-10-23 16:20:37 13.39 ℃ 100 % 1026.55 hPa
2021-10-23 16:10:37 13.49 ℃ 100 % 1026.44 hPa
2021-10-23 16:00:37 13.69 ℃ 100 % 1026.37 hPa
2021-10-23 15:50:37 13.58 ℃ 100 % 1026.35 hPa
2021-10-23 15:40:37 13.43 ℃ 100 % 1026.31 hPa
2021-10-23 15:30:37 13.48 ℃ 100 % 1026.27 hPa
2021-10-23 15:20:37 13.37 ℃ 100 % 1026.25 hPa
2021-10-23 15:10:37 13.19 ℃ 100 % 1026.25 hPa
2021-10-23 15:00:37 13.16 ℃ 100 % 1026.17 hPa
2021-10-23 14:50:37 13.15 ℃ 100 % 1026.08 hPa
2021-10-23 14:40:37 13.23 ℃ 100 % 1025.98 hPa
2021-10-23 14:30:37 13.36 ℃ 100 % 1025.87 hPa
2021-10-23 14:20:37 13.48 ℃ 100 % 1025.79 hPa
2021-10-23 14:10:37 13.55 ℃ 100 % 1025.68 hPa
2021-10-23 14:00:37 13.21 ℃ 100 % 1025.61 hPa
2021-10-23 13:50:37 12.86 ℃ 100 % 1025.54 hPa
2021-10-23 13:40:37 13 ℃ 100 % 1025.4 hPa
Durchschnitt 13.56 ℃ 100 % 1026.66 hPa

Extremwerte

Nachfolgend die Extremwerte seit Aufzeichnung.

BezeichnungWertZeitpunkt
Niedrigste Temperatur-6.4 ℃2021-02-13 07:00:53
Höchste Temperatur33.66 ℃2021-06-17 17:11:09
Niedrigster Luftdruck979.11 hPa2021-01-22 05:21:46
Höchster Luftdruck1074.18 hPa2020-12-24 17:16:12
Niedrigste Luftfeuchtigkeit22.3 %2020-04-13 15:26:13
Höchste Luftfeuchtigkeit100 %2021-10-23 19:30:40